createdAt,value
2023-04-18T00:01:25.266Z,11.73
2023-04-18T00:03:52.433Z,12.00
2023-04-18T00:06:22.178Z,11.65
2023-04-18T00:08:49.364Z,10.38
2023-04-18T00:11:16.307Z,11.27
2023-04-18T00:13:43.181Z,11.40
2023-04-18T00:16:10.385Z,11.43
2023-04-18T00:18:37.613Z,11.00
2023-04-18T00:21:04.653Z,10.93
2023-04-18T00:23:31.542Z,10.45
2023-04-18T00:25:59.911Z,11.35
2023-04-18T00:28:27.059Z,10.05
2023-04-18T00:30:55.631Z,10.35
2023-04-18T00:33:23.698Z,10.68
2023-04-18T00:35:53.596Z,9.98
2023-04-18T00:38:20.594Z,10.02
2023-04-18T00:40:48.459Z,9.75
2023-04-18T00:43:15.398Z,9.65
2023-04-18T00:45:42.372Z,9.23
2023-04-18T00:48:11.565Z,8.95
2023-04-18T00:50:38.860Z,8.73
2023-04-18T00:53:10.559Z,8.57
2023-04-18T00:55:39.044Z,8.10
2023-04-18T00:58:06.435Z,8.93
2023-04-18T01:00:33.251Z,7.85
2023-04-18T01:03:01.010Z,8.25
2023-04-18T01:05:28.076Z,9.60
2023-04-18T01:08:01.062Z,9.95
2023-04-18T01:13:15.352Z,11.13
2023-04-18T01:15:47.310Z,10.77
2023-04-18T01:20:48.358Z,11.05
2023-04-18T01:23:16.511Z,10.27
2023-04-18T01:25:44.228Z,10.15
2023-04-18T01:28:13.410Z,8.75
2023-04-18T01:30:40.774Z,9.63
2023-04-18T01:33:07.684Z,9.15
2023-04-18T01:35:36.137Z,8.52
2023-04-18T01:38:03.068Z,8.13
2023-04-18T01:40:30.559Z,8.20
2023-04-18T01:42:57.419Z,7.97
2023-04-18T01:45:25.064Z,7.93
2023-04-18T01:47:52.068Z,8.00
2023-04-18T01:50:21.495Z,8.10
2023-04-18T01:52:48.407Z,7.97
2023-04-18T01:55:16.595Z,6.85
2023-04-18T01:57:45.077Z,8.32
2023-04-18T02:00:12.695Z,8.48
2023-04-18T02:02:43.520Z,8.30
2023-04-18T02:05:10.719Z,8.63
2023-04-18T02:07:41.219Z,8.07
2023-04-18T02:10:10.296Z,8.00
2023-04-18T02:12:39.075Z,8.15
2023-04-18T02:15:08.306Z,8.45
2023-04-18T02:17:37.996Z,7.93
2023-04-18T02:20:08.167Z,8.05
2023-04-18T02:22:38.261Z,7.10
2023-04-18T02:25:05.608Z,8.13
2023-04-18T02:27:33.924Z,8.38
2023-04-18T02:30:02.173Z,8.05
2023-04-18T02:32:31.845Z,8.35
2023-04-18T02:34:58.745Z,7.82
2023-04-18T02:37:26.005Z,8.57
2023-04-18T02:39:53.261Z,8.65
2023-04-18T02:42:20.059Z,7.10
2023-04-18T02:44:46.891Z,7.38
2023-04-18T02:47:14.448Z,7.53
2023-04-18T02:49:44.490Z,7.65
2023-04-18T02:52:12.108Z,7.88
2023-04-18T02:54:38.862Z,9.20
2023-04-18T02:57:10.602Z,9.20
2023-04-18T02:59:53.070Z,9.03
2023-04-18T03:02:40.239Z,8.05
2023-04-18T03:05:27.099Z,8.45
2023-04-18T03:07:57.570Z,9.02
2023-04-18T03:10:24.495Z,7.78
2023-04-18T03:12:51.495Z,7.20
2023-04-18T03:15:19.419Z,7.93
2023-04-18T03:17:47.245Z,7.65
2023-04-18T03:20:15.697Z,6.95
2023-04-18T03:22:42.571Z,6.55
2023-04-18T03:25:10.588Z,6.63
2023-04-18T03:27:44.269Z,7.40
2023-04-18T03:30:14.327Z,7.10
2023-04-18T03:32:43.529Z,7.10
2023-04-18T03:35:11.262Z,7.68
2023-04-18T03:37:38.362Z,7.07
2023-04-18T03:40:06.041Z,7.43
2023-04-18T03:42:33.120Z,7.10
2023-04-18T03:45:00.086Z,6.22
2023-04-18T03:47:28.186Z,7.28
2023-04-18T03:49:57.976Z,6.38
2023-04-18T03:52:28.550Z,6.28
2023-04-18T03:54:56.628Z,6.40
2023-04-18T03:57:30.478Z,6.47
2023-04-18T03:59:57.935Z,6.68
2023-04-18T04:02:25.023Z,6.55
2023-04-18T04:04:52.073Z,6.15
2023-04-18T04:07:19.276Z,6.75
2023-04-18T04:09:48.416Z,6.63
2023-04-18T04:12:17.467Z,6.68
2023-04-18T04:14:44.446Z,6.40
2023-04-18T04:17:11.335Z,7.85
2023-04-18T04:19:39.360Z,7.07
2023-04-18T04:22:13.075Z,7.50
2023-04-18T04:24:42.176Z,6.70
2023-04-18T04:27:11.028Z,7.35
2023-04-18T04:29:39.313Z,6.50
2023-04-18T04:32:08.286Z,7.18
2023-04-18T04:34:38.145Z,6.80
2023-04-18T04:37:08.509Z,6.07
2023-04-18T04:39:42.495Z,7.00
2023-04-18T04:42:32.199Z,6.93
2023-04-18T04:45:10.492Z,6.93
2023-04-18T04:47:37.560Z,6.97
2023-04-18T04:50:07.494Z,6.80
2023-04-18T04:52:34.435Z,6.22
2023-04-18T04:55:03.138Z,7.65
2023-04-18T04:57:32.953Z,7.15
2023-04-18T05:00:00.720Z,5.70
2023-04-18T05:05:16.372Z,6.35
2023-04-18T05:07:43.144Z,6.43
2023-04-18T05:10:10.547Z,4.95
2023-04-18T05:12:37.335Z,5.10
2023-04-18T05:15:04.469Z,4.75
2023-04-18T05:17:31.550Z,4.57
2023-04-18T05:19:58.365Z,5.22
2023-04-18T05:25:09.699Z,4.65
2023-04-18T05:27:36.566Z,4.53
2023-04-18T05:30:03.407Z,3.78
2023-04-18T05:35:15.470Z,4.00
2023-04-18T05:37:42.374Z,5.18
2023-04-18T05:40:10.288Z,6.32
2023-04-18T05:42:37.062Z,5.63
2023-04-18T05:45:04.278Z,5.75
2023-04-18T05:47:33.800Z,5.35
2023-04-18T05:50:02.334Z,5.60
2023-04-18T05:52:31.335Z,5.45
2023-04-18T05:54:58.209Z,5.07
2023-04-18T05:57:25.090Z,5.40
2023-04-18T05:59:52.351Z,4.93
2023-04-18T06:02:19.317Z,5.07
2023-04-18T06:04:46.590Z,5.47
2023-04-18T06:07:13.502Z,4.63
2023-04-18T06:09:40.767Z,4.95
2023-04-18T06:12:07.693Z,4.88
2023-04-18T06:14:34.586Z,5.05
2023-04-18T06:17:01.444Z,5.10
2023-04-18T06:19:28.810Z,4.97
2023-04-18T06:21:55.710Z,5.30
2023-04-18T06:24:23.153Z,5.72
2023-04-18T06:26:50.086Z,7.70
2023-04-18T06:29:18.231Z,4.93
2023-04-18T06:31:46.295Z,7.15
2023-04-18T06:34:13.900Z,5.43
2023-04-18T06:36:41.015Z,4.68
2023-04-18T06:39:08.139Z,4.63
2023-04-18T06:41:34.988Z,4.72
2023-04-18T06:44:14.535Z,4.93
2023-04-18T06:46:42.216Z,5.38
2023-04-18T06:49:09.407Z,4.75
2023-04-18T06:51:36.210Z,4.60
2023-04-18T06:54:03.125Z,4.53
2023-04-18T06:56:32.130Z,4.20
2023-04-18T06:59:02.451Z,4.03
2023-04-18T07:01:33.702Z,4.03
2023-04-18T07:04:01.010Z,3.30
2023-04-18T07:06:28.128Z,3.40
2023-04-18T07:09:00.047Z,3.70
2023-04-18T07:11:28.162Z,3.45
2023-04-18T07:13:55.029Z,3.28
2023-04-18T07:16:22.075Z,3.17
2023-04-18T07:18:49.147Z,2.97
2023-04-18T07:21:16.061Z,3.40
2023-04-18T07:23:42.942Z,3.17
2023-04-18T07:26:11.481Z,3.00
2023-04-18T07:28:38.432Z,3.50
2023-04-18T07:31:05.739Z,3.10
2023-04-18T07:33:34.042Z,3.53
2023-04-18T07:36:03.007Z,3.42
2023-04-18T07:38:31.123Z,3.58
2023-04-18T07:41:00.140Z,3.10
2023-04-18T07:43:29.187Z,3.00
2023-04-18T07:45:56.266Z,3.00
2023-04-18T07:48:23.601Z,3.30
2023-04-18T07:50:50.549Z,4.28
2023-04-18T07:53:18.003Z,3.38
2023-04-18T07:55:45.788Z,3.13
2023-04-18T07:58:13.173Z,3.17
2023-04-18T08:00:42.738Z,3.25
2023-04-18T08:03:12.319Z,3.28
2023-04-18T08:05:40.711Z,3.47
2023-04-18T08:08:09.346Z,3.20
2023-04-18T08:10:39.262Z,3.30
2023-04-18T08:13:08.675Z,2.90
2023-04-18T08:15:36.916Z,2.75
2023-04-18T08:18:04.543Z,2.95
2023-04-18T08:20:31.673Z,3.28
2023-04-18T08:23:07.527Z,3.10
2023-04-18T08:25:42.205Z,2.80
2023-04-18T08:28:10.420Z,3.10
2023-04-18T08:30:40.174Z,3.22
2023-04-18T08:33:09.910Z,2.70
2023-04-18T08:35:36.952Z,3.22
2023-04-18T08:38:04.608Z,2.63
2023-04-18T08:40:31.687Z,2.90
2023-04-18T08:43:01.177Z,3.60
2023-04-18T08:45:28.786Z,2.63
2023-04-18T08:47:57.879Z,2.45
2023-04-18T08:50:24.770Z,2.35
2023-04-18T08:52:54.066Z,1.98
2023-04-18T08:55:22.480Z,2.40
2023-04-18T08:57:54.065Z,2.15
2023-04-18T09:00:21.127Z,2.17
2023-04-18T09:02:49.424Z,2.20
2023-04-18T09:05:21.608Z,2.60
2023-04-18T09:07:50.411Z,2.33
2023-04-18T09:10:31.025Z,2.20
2023-04-18T09:13:01.519Z,2.60
2023-04-18T09:15:29.831Z,2.53
2023-04-18T09:18:01.003Z,2.88
2023-04-18T09:20:38.588Z,2.38
2023-04-18T09:23:11.124Z,2.30
2023-04-18T09:28:24.621Z,2.10
2023-04-18T09:30:52.827Z,2.42
2023-04-18T09:33:33.051Z,2.10
2023-04-18T09:36:20.412Z,2.08
2023-04-18T09:38:48.854Z,2.20
2023-04-18T09:41:19.959Z,2.70
2023-04-18T09:43:49.075Z,2.20
2023-04-18T09:46:20.386Z,2.38
2023-04-18T09:48:50.679Z,2.67
2023-04-18T09:51:18.943Z,2.38
2023-04-18T09:53:47.516Z,2.53
2023-04-18T09:56:29.685Z,2.25
2023-04-18T09:59:10.723Z,2.42
2023-04-18T10:01:38.421Z,2.30
2023-04-18T10:04:08.996Z,2.50
2023-04-18T10:06:42.025Z,2.42
2023-04-18T10:09:09.996Z,2.42
2023-04-18T10:11:37.484Z,2.70
2023-04-18T10:14:09.742Z,3.13
2023-04-18T10:16:37.891Z,2.40
2023-04-18T10:19:28.402Z,2.45
2023-04-18T10:21:57.003Z,2.25
2023-04-18T10:24:50.079Z,2.10
2023-04-18T10:27:18.645Z,3.35
2023-04-18T10:29:54.812Z,3.45
2023-04-18T10:32:24.850Z,3.40
2023-04-18T10:34:53.781Z,3.95
2023-04-18T10:37:20.849Z,4.00
2023-04-18T10:39:49.256Z,3.85
2023-04-18T10:42:16.169Z,4.43
2023-04-18T10:44:43.071Z,3.97
2023-04-18T10:47:09.986Z,3.92
2023-04-18T10:49:39.845Z,4.20
2023-04-18T10:52:07.039Z,4.18
2023-04-18T10:54:47.480Z,4.18
2023-04-18T10:57:15.274Z,4.30
2023-04-18T10:59:43.908Z,4.60
2023-04-18T11:02:27.573Z,4.72
2023-04-18T11:05:04.743Z,5.13
2023-04-18T11:07:40.995Z,9.55
2023-04-18T11:10:09.599Z,5.47
2023-04-18T11:12:38.541Z,4.40
2023-04-18T11:15:21.256Z,4.55
2023-04-18T11:18:02.348Z,4.13
2023-04-18T11:20:37.331Z,4.28
2023-04-18T11:23:04.179Z,4.05
2023-04-18T11:25:36.601Z,4.13
2023-04-18T11:28:04.873Z,4.80
2023-04-18T11:30:41.925Z,4.57
2023-04-18T11:33:11.241Z,4.97
2023-04-18T11:35:39.947Z,8.25
2023-04-18T11:38:08.503Z,4.13
2023-04-18T11:40:41.239Z,3.85
2023-04-18T11:43:08.371Z,4.45
2023-04-18T11:45:35.529Z,4.50
2023-04-18T11:48:02.616Z,3.92
2023-04-18T11:50:35.193Z,5.15
2023-04-18T11:53:02.046Z,4.70
2023-04-18T11:55:29.002Z,4.55
2023-04-18T11:57:57.968Z,5.07
2023-04-18T12:00:39.241Z,4.70
2023-04-18T12:03:15.848Z,5.40
2023-04-18T12:05:43.315Z,5.25
2023-04-18T12:08:11.472Z,5.43
2023-04-18T12:10:46.500Z,6.25
2023-04-18T12:13:13.424Z,5.88
2023-04-18T12:15:43.900Z,6.10
2023-04-18T12:18:16.910Z,5.53
2023-04-18T12:23:33.869Z,6.30
2023-04-18T12:26:06.208Z,5.50
2023-04-18T12:28:34.469Z,5.32
2023-04-18T12:31:02.567Z,5.95
2023-04-18T12:33:30.578Z,5.80
2023-04-18T12:35:57.636Z,6.32
2023-04-18T12:38:25.197Z,5.75
2023-04-18T12:40:52.605Z,5.65
2023-04-18T12:43:20.682Z,6.32
2023-04-18T12:45:49.415Z,5.80
2023-04-18T12:48:17.425Z,4.80
2023-04-18T12:50:44.429Z,5.65
2023-04-18T12:53:11.266Z,5.63
2023-04-18T12:55:38.367Z,6.13
2023-04-18T12:58:05.371Z,6.18
2023-04-18T13:00:33.169Z,5.47
2023-04-18T13:03:01.521Z,6.20
2023-04-18T13:05:33.083Z,6.20
2023-04-18T13:10:31.056Z,6.25
2023-04-18T13:12:58.032Z,5.47
2023-04-18T13:15:25.798Z,5.82
2023-04-18T13:17:52.902Z,5.50
2023-04-18T13:20:19.991Z,5.90
2023-04-18T13:22:48.009Z,5.40
2023-04-18T13:25:14.943Z,6.10
2023-04-18T13:27:43.287Z,5.00
2023-04-18T13:30:11.224Z,6.80
2023-04-18T13:32:40.446Z,5.38
2023-04-18T13:35:09.104Z,4.80
2023-04-18T13:37:36.713Z,5.22
2023-04-18T13:40:07.310Z,5.57
2023-04-18T13:42:35.734Z,5.10
2023-04-18T13:45:03.774Z,4.88
2023-04-18T13:47:33.309Z,4.57
2023-04-18T13:50:00.238Z,4.80
2023-04-18T13:52:27.263Z,4.65
2023-04-18T13:54:54.209Z,5.55
2023-04-18T13:57:21.931Z,5.25
2023-04-18T13:59:48.811Z,5.85
2023-04-18T14:02:15.920Z,5.80
2023-04-18T14:04:43.050Z,5.43
2023-04-18T14:07:10.034Z,5.13
2023-04-18T14:09:36.804Z,5.28
2023-04-18T14:12:03.740Z,5.38
2023-04-18T14:14:31.118Z,5.20
2023-04-18T14:16:58.106Z,5.57
2023-04-18T14:19:25.172Z,5.32
2023-04-18T14:21:52.174Z,4.72
2023-04-18T14:24:19.042Z,5.18
2023-04-18T14:26:46.479Z,5.38
2023-04-18T14:29:14.333Z,5.05
2023-04-18T14:31:42.699Z,4.90
2023-04-18T14:34:09.910Z,4.88
2023-04-18T14:36:37.126Z,5.95
2023-04-18T14:39:04.719Z,5.43
2023-04-18T14:41:31.743Z,5.72
2023-04-18T14:43:59.124Z,5.35
2023-04-18T14:46:28.286Z,6.25
2023-04-18T14:48:55.437Z,5.93
2023-04-18T14:51:23.059Z,5.35
2023-04-18T14:53:50.075Z,5.68
2023-04-18T14:56:20.930Z,6.35
2023-04-18T14:58:48.020Z,5.78
2023-04-18T15:01:14.935Z,6.18
2023-04-18T15:03:41.901Z,5.85
2023-04-18T15:06:13.212Z,6.10
2023-04-18T15:08:40.157Z,5.90
2023-04-18T15:11:08.220Z,6.65
2023-04-18T15:13:36.084Z,6.18
2023-04-18T15:16:03.286Z,6.95
2023-04-18T15:18:30.086Z,6.57
2023-04-18T15:20:57.481Z,7.20
2023-04-18T15:23:26.979Z,6.97
2023-04-18T15:25:53.773Z,7.20
2023-04-18T15:28:20.654Z,7.93
2023-04-18T15:30:47.554Z,7.55
2023-04-18T15:33:15.683Z,8.88
2023-04-18T15:35:42.574Z,8.45
2023-04-18T15:38:12.508Z,8.20
2023-04-18T15:40:39.500Z,8.13
2023-04-18T15:43:06.850Z,10.00
2023-04-18T15:45:34.058Z,9.45
2023-04-18T15:48:01.008Z,9.40
2023-04-18T15:50:28.003Z,8.43
2023-04-18T15:52:55.022Z,9.65
2023-04-18T15:55:24.491Z,9.52
2023-04-18T15:57:51.282Z,8.55
2023-04-18T16:00:19.758Z,8.15
2023-04-18T16:02:47.551Z,10.15
2023-04-18T16:05:15.452Z,9.50
2023-04-18T16:07:43.013Z,10.57
2023-04-18T16:10:12.838Z,10.40
2023-04-18T16:12:40.330Z,10.30
2023-04-18T16:15:08.714Z,10.02
2023-04-18T16:17:37.139Z,10.15
2023-04-18T16:20:06.082Z,8.90
2023-04-18T16:22:33.528Z,10.07
2023-04-18T16:25:00.547Z,9.50
2023-04-18T16:27:28.894Z,9.13
2023-04-18T16:29:56.190Z,9.65
2023-04-18T16:32:24.647Z,9.50
2023-04-18T16:34:51.947Z,9.43
2023-04-18T16:37:19.941Z,9.75
2023-04-18T16:39:47.047Z,8.98
2023-04-18T16:42:15.671Z,9.10
2023-04-18T16:44:44.836Z,8.73
2023-04-18T16:47:11.742Z,8.70
2023-04-18T16:49:39.579Z,10.20
2023-04-18T16:52:08.907Z,10.30
2023-04-18T16:54:36.242Z,10.15
2023-04-18T16:57:04.427Z,10.40
2023-04-18T16:59:31.278Z,11.27
2023-04-18T17:01:58.873Z,11.88
2023-04-18T17:04:29.150Z,11.73
2023-04-18T17:06:59.563Z,12.48
2023-04-18T17:09:26.997Z,11.73
2023-04-18T17:11:53.872Z,12.32
2023-04-18T17:14:20.965Z,12.40
2023-04-18T17:16:48.501Z,13.00
2023-04-18T17:19:17.042Z,14.18
2023-04-18T17:21:46.364Z,14.43
2023-04-18T17:24:13.381Z,13.95
2023-04-18T17:26:40.700Z,13.75
2023-04-18T17:29:07.540Z,14.80
2023-04-18T17:31:34.723Z,14.20
2023-04-18T17:34:04.780Z,14.25
2023-04-18T17:36:31.628Z,14.65
2023-04-18T17:39:05.532Z,14.32
2023-04-18T17:41:39.869Z,15.10
2023-04-18T17:44:10.288Z,14.63
2023-04-18T17:46:37.258Z,13.45
2023-04-18T17:49:04.866Z,15.45
2023-04-18T17:51:31.788Z,14.57
2023-04-18T17:53:58.785Z,13.75
2023-04-18T17:56:27.492Z,16.83
2023-04-18T17:58:56.560Z,14.80
2023-04-18T18:01:27.942Z,14.68
2023-04-18T18:03:55.060Z,16.08
2023-04-18T18:06:22.120Z,15.23
2023-04-18T18:08:49.221Z,14.63
2023-04-18T18:11:16.949Z,14.75
2023-04-18T18:13:43.854Z,14.10
2023-04-18T18:16:10.780Z,14.98
2023-04-18T18:18:38.181Z,13.57
2023-04-18T18:21:05.183Z,14.88
2023-04-18T18:23:32.076Z,15.18
2023-04-18T18:25:58.928Z,11.95
2023-04-18T18:28:26.584Z,12.63
2023-04-18T18:30:54.690Z,12.32
2023-04-18T18:33:21.722Z,11.27
2023-04-18T18:35:48.754Z,11.13
2023-04-18T18:38:15.699Z,10.93
2023-04-18T18:40:42.602Z,12.60
2023-04-18T18:43:09.608Z,11.90
2023-04-18T18:45:37.802Z,12.50
2023-04-18T18:48:07.404Z,12.38
2023-04-18T18:50:34.716Z,12.50
2023-04-18T18:53:02.013Z,12.27
2023-04-18T18:55:32.666Z,10.85
2023-04-18T18:57:59.663Z,11.23
2023-04-18T19:00:26.540Z,11.20
2023-04-18T19:02:53.460Z,10.45
2023-04-18T19:05:21.219Z,10.15
2023-04-18T19:07:48.405Z,9.75
2023-04-18T19:10:17.117Z,10.00
2023-04-18T19:12:44.657Z,9.05
2023-04-18T19:15:12.362Z,8.20
2023-04-18T19:17:39.395Z,9.45
2023-04-18T19:20:07.238Z,8.63
2023-04-18T19:22:34.180Z,11.88
2023-04-18T19:25:03.065Z,10.15
2023-04-18T19:27:31.981Z,10.40
2023-04-18T19:29:59.023Z,10.18
2023-04-18T19:32:26.177Z,10.93
2023-04-18T19:34:53.574Z,11.13
2023-04-18T19:37:20.432Z,11.18
2023-04-18T19:39:48.281Z,11.13
2023-04-18T19:42:17.331Z,11.00
2023-04-18T19:44:44.865Z,10.07
2023-04-18T19:47:11.747Z,9.73
2023-04-18T19:49:38.724Z,9.68
2023-04-18T19:52:06.321Z,10.50
2023-04-18T19:54:34.431Z,9.15
2023-04-18T19:57:04.649Z,6.50
2023-04-18T19:59:31.533Z,8.38
2023-04-18T20:02:01.446Z,8.23
2023-04-18T20:04:31.687Z,7.45
2023-04-18T20:06:58.800Z,5.32
2023-04-18T20:09:25.902Z,6.78
2023-04-18T20:11:54.378Z,5.20
2023-04-18T20:14:21.454Z,5.45
2023-04-18T20:16:49.780Z,6.00
2023-04-18T20:19:19.619Z,4.97
2023-04-18T20:21:46.568Z,5.43
2023-04-18T20:24:13.784Z,5.15
2023-04-18T20:26:41.653Z,4.90
2023-04-18T20:29:10.134Z,5.35
2023-04-18T20:31:42.152Z,5.25
2023-04-18T20:34:10.142Z,4.45
2023-04-18T20:36:41.522Z,4.50
2023-04-18T20:39:10.632Z,3.83
2023-04-18T20:41:37.677Z,4.32
2023-04-18T20:44:08.983Z,4.32
2023-04-18T20:46:35.934Z,4.80
2023-04-18T20:49:03.048Z,4.28
2023-04-18T20:51:30.256Z,3.78
2023-04-18T20:53:57.282Z,4.30
2023-04-18T20:56:24.282Z,4.43
2023-04-18T20:58:51.283Z,3.70
2023-04-18T21:01:18.162Z,3.30
2023-04-18T21:03:46.387Z,4.32
2023-04-18T21:06:13.295Z,3.50
2023-04-18T21:08:40.446Z,3.50
2023-04-18T21:11:08.187Z,3.83
2023-04-18T21:13:35.609Z,4.28
2023-04-18T21:16:03.641Z,3.53
2023-04-18T21:18:31.734Z,3.53
2023-04-18T21:20:58.661Z,5.50
2023-04-18T21:23:25.480Z,5.97
2023-04-18T21:25:52.321Z,3.90
2023-04-18T21:28:22.445Z,4.22
2023-04-18T21:30:49.302Z,12.38
2023-04-18T21:33:16.500Z,4.43
2023-04-18T21:35:43.761Z,3.90
2023-04-18T21:38:10.611Z,3.90
2023-04-18T21:40:38.136Z,4.18
2023-04-18T21:43:05.036Z,4.03
2023-04-18T21:45:31.905Z,3.95
2023-04-18T21:47:58.790Z,3.75
2023-04-18T21:50:25.647Z,3.80
2023-04-18T21:52:52.525Z,4.22
2023-04-18T21:55:19.316Z,3.60
2023-04-18T21:57:47.355Z,4.07
2023-04-18T22:00:14.856Z,4.05
2023-04-18T22:03:01.492Z,4.35
2023-04-18T22:05:28.912Z,4.20
2023-04-18T22:07:58.424Z,3.88
2023-04-18T22:10:25.663Z,3.90
2023-04-18T22:12:54.126Z,4.20
2023-04-18T22:15:21.705Z,4.10
2023-04-18T22:17:50.476Z,3.75
2023-04-18T22:20:18.855Z,4.15
2023-04-18T22:22:46.095Z,4.22
2023-04-18T22:25:12.996Z,3.90
2023-04-18T22:27:40.535Z,5.35
2023-04-18T22:30:08.102Z,3.90
2023-04-18T22:32:35.650Z,4.72
2023-04-18T22:35:03.569Z,4.00
2023-04-18T22:37:31.042Z,4.57
2023-04-18T22:39:57.912Z,3.80
2023-04-18T22:42:24.715Z,3.92
2023-04-18T22:44:51.462Z,4.15
2023-04-18T22:47:18.248Z,4.40
2023-04-18T22:49:45.943Z,3.75
2023-04-18T22:52:14.224Z,4.13
2023-04-18T22:54:41.803Z,4.25
2023-04-18T22:57:09.320Z,4.68
2023-04-18T22:59:36.265Z,4.40
2023-04-18T23:02:03.167Z,4.13
2023-04-18T23:04:30.209Z,4.38
2023-04-18T23:06:57.053Z,4.13
2023-04-18T23:09:24.598Z,3.67
2023-04-18T23:11:51.520Z,4.20
2023-04-18T23:14:18.501Z,4.35
2023-04-18T23:16:45.681Z,4.30
2023-04-18T23:19:12.484Z,4.00
2023-04-18T23:21:39.260Z,4.05
2023-04-18T23:24:07.311Z,4.22
2023-04-18T23:26:34.241Z,4.53
2023-04-18T23:29:01.098Z,4.97
2023-04-18T23:31:29.208Z,5.07
2023-04-18T23:33:56.535Z,5.45
2023-04-18T23:36:23.320Z,5.15
2023-04-18T23:38:50.130Z,5.10
2023-04-18T23:41:16.968Z,4.95
2023-04-18T23:43:44.619Z,5.30
2023-04-18T23:46:13.311Z,5.00
2023-04-18T23:48:42.740Z,4.95
2023-04-18T23:51:09.677Z,4.40
2023-04-18T23:53:36.614Z,4.80
2023-04-18T23:56:03.974Z,4.72
2023-04-18T23:58:31.786Z,4.43
